Suez Canal Bridge — HODM — position and weather

sailwx.info

Track history (hours):
 
Tides and Currents Weather Stations Pressure Air Temp Water Temp Dewpoint Dewpoint Depression Visibility Wind Speed Wind Dir Waves Ship Positions

Suez Canal Bridge

Last reported at 2014-Sep-15 16:16 UTC. Time now 2014-Sep-17 01:34 UTC.
Position N 01°13' E 103°31'.

Length 284.7 m; beam 40 m.

Type: Cargo ship. MMSI: 353704000.

Date/timePositionNaut miles runAvg speedWind from/ knotsBaromVisibWave heightAir tempDewpointWater temp
2014-Sep-15 16:16N 01°13' E 103°31'1014.4
2014-Sep-15 15:33N 01°13' E 103°41'7 6.4
2014-Sep-15 14:31N 01°16' E 103°47'0 0.3
2014-Sep-15 13:31N 01°17' E 103°47'0 0.0
2014-Sep-15 12:33N 01°17' E 103°47'0 0.0
2014-Sep-15 11:33N 01°17' E 103°47'0 0.0
2014-Sep-15 10:33N 01°17' E 103°47'0 0.1
2014-Sep-15 09:33N 01°17' E 103°47'0 0.0
2014-Sep-15 08:33N 01°17' E 103°47'0 0.0
2014-Sep-15 07:33N 01°17' E 103°47'0 0.0
2014-Sep-15 06:33N 01°17' E 103°47'0 0.1
2014-Sep-15 05:33N 01°17' E 103°47'0 0.0
2014-Sep-15 04:33N 01°17' E 103°47'0 0.0
2014-Sep-15 03:33N 01°17' E 103°47'0 0.1
2014-Sep-15 02:33N 01°17' E 103°47'0 0.0
2014-Sep-15 01:33N 01°17' E 103°47'0 0.0
2014-Sep-15 00:33N 01°17' E 103°47'0 0.1
2014-Sep-14 23:33N 01°17' E 103°47'0 0.1
2014-Sep-14 22:33N 01°17' E 103°47'0 0.0
2014-Sep-14 21:33N 01°17' E 103°47'0 0.0
2014-Sep-14 20:33N 01°17' E 103°47'0 0.1
2014-Sep-14 19:33N 01°17' E 103°47'0 0.1
2014-Sep-14 18:33N 01°17' E 103°47'5 5.4
2014-Sep-14 17:32N 01°12' E 103°50'4 4.1
2014-Sep-14 16:30N 01°14' E 103°53'0 0.0
2014-Sep-14 15:30N 01°14' E 103°53'0 0.0
2014-Sep-14 14:33N 01°14' E 103°53'0 0.0
2014-Sep-14 13:33N 01°14' E 103°53'1 0.9
2014-Sep-14 12:34N 01°14' E 103°54'5 5.4
2014-Sep-14 11:34N 01°16' E 103°59'7 7.1
2014-Sep-14 10:32N 01°16' E 104°06'  
2014-Sep-10 11:33N 23°13' E 117°35'1919.5
2014-Sep-10 10:33N 23°26' E 117°51'2120.4
2014-Sep-10 09:31N 23°39' E 118°08'1313.0
2014-Sep-10 08:33N 23°47' E 118°19'2019.1
2014-Sep-10 07:31N 24°01' E 118°34'2319.8
2014-Sep-10 06:21N 24°15' E 118°55'1618.5
2014-Sep-10 05:29N 24°27' E 119°06'1819.7
2014-Sep-10 04:33N 24°40' E 119°21'39018.5
2014-Sep-09 07:31N 30°18' E 122°59'2020.9
2014-Sep-09 06:33N 30°28' E 122°39'1717.0
2014-Sep-09 05:33N 30°32' E 122°20'1513.1
2014-Sep-09 04:23N 30°37' E 122°03'0 0.4
2014-Sep-09 03:09N 30°38' E 122°03'0 0.0
2014-Sep-09 02:25N 30°38' E 122°03'0 0.0
2014-Sep-09 01:33N 30°38' E 122°03'0 0.0
2014-Sep-09 00:32N 30°38' E 122°03'0 0.0
2014-Sep-08 23:33N 30°38' E 122°03'0 0.0
2014-Sep-08 22:32N 30°38' E 122°03'0 0.0
2014-Sep-08 21:33N 30°38' E 122°03'0 0.1
2014-Sep-08 20:33N 30°38' E 122°03'0 0.0
2014-Sep-08 19:29N 30°38' E 122°03'0 0.0
2014-Sep-08 18:30N 30°38' E 122°03'0 0.0
2014-Sep-08 17:33N 30°38' E 122°03'0 0.0
2014-Sep-08 16:31N 30°38' E 122°03'0 0.0
2014-Sep-08 15:33N 30°38' E 122°03'0 0.0
2014-Sep-08 14:32N 30°38' E 122°03'0 0.0
2014-Sep-08 13:32N 30°38' E 122°03'0 0.0
2014-Sep-08 12:33N 30°38' E 122°03'0 0.0
2014-Sep-08 11:24N 30°38' E 122°03'0 0.0
2014-Sep-08 10:33N 30°38' E 122°03'0 0.0
2014-Sep-08 09:32N 30°38' E 122°03'0 0.0
2014-Sep-08 08:30N 30°38' E 122°03'0 0.0
2014-Sep-08 07:33N 30°38' E 122°03'0 0.0
2014-Sep-08 06:33N 30°38' E 122°03'0 0.0
2014-Sep-08 05:32N 30°38' E 122°03'0 0.0
2014-Sep-08 04:27N 30°38' E 122°03'5 5.2
2014-Sep-08 03:33N 30°35' E 122°07'1110.8
2014-Sep-08 02:33N 30°33' E 122°20'5 5.4
2014-Sep-08 01:33N 30°32' E 122°26'9 9.4
2014-Sep-08 00:33N 30°30' E 122°37'1511.8
2014-Sep-07 23:18N 30°24' E 122°52'1215.1
2014-Sep-07 22:33N 30°17' E 123°02'1515.4
2014-Sep-07 21:33N 30°02' E 123°04'1716.9
2014-Sep-07 20:33N 29°52' E 122°48'1615.6
2014-Sep-07 19:33N 29°41' E 122°35'1413.9
2014-Sep-07 18:33N 29°44' E 122°20'1313.0
2014-Sep-07 17:33N 29°54' E 122°10'6 5.6
2014-Sep-07 16:28N 29°53' E 122°03'0 0.0
2014-Sep-07 15:22N 29°53' E 122°03'0 0.0
2014-Sep-07 13:28N 29°53' E 122°03'0 0.0
2014-Sep-07 12:28N 29°53' E 122°03'0 0.0
2014-Sep-07 10:04N 29°53' E 122°03'0 0.0
2014-Sep-07 08:28N 29°53' E 122°03'0 0.0
2014-Sep-07 06:04N 29°53' E 122°03'0 0.0
2014-Sep-07 05:04N 29°53' E 122°03'0 0.0
2014-Sep-07 01:22N 29°53' E 122°03'0 0.0
2014-Sep-07 00:22N 29°53' E 122°03'0 0.0
2014-Sep-06 23:28N 29°53' E 122°03'0 0.0
2014-Sep-06 22:04N 29°53' E 122°03'0 0.0
2014-Sep-06 21:28N 29°53' E 122°03'0 0.0
2014-Sep-06 20:22N 29°53' E 122°03'0 0.0
2014-Sep-06 19:22N 29°53' E 122°03'0 0.0
2014-Sep-06 18:25N 29°53' E 122°03'0 0.0
2014-Sep-06 17:22N 29°53' E 122°03'0 0.6
2014-Sep-06 16:33N 29°54' E 122°04'8 8.2
2014-Sep-06 15:33N 29°51' E 122°13'9 9.3
2014-Sep-06 14:33N 29°45' E 122°21'8 7.6
2014-Sep-06 13:33N 29°42' E 122°29'8 8.3
2014-Sep-06 12:32N 29°35' E 122°33'1110.5
2014-Sep-06 11:30N 29°24' E 122°32'1111.8
2014-Sep-06 10:33N 29°14' E 122°27'7 7.2
2014-Sep-06 09:33N 29°07' E 122°24'0 0.0
2014-Sep-06 08:23N 29°07' E 122°24'0 0.0
2014-Sep-06 07:31N 29°07' E 122°24'0 0.0
2014-Sep-05 20:29N 29°07' E 122°24'0 0.0
2014-Sep-05 19:20N 29°07' E 122°24'0 0.0
2014-Sep-05 18:18N 29°07' E 122°24'0 0.0
2014-Sep-05 17:27N 29°07' E 122°24'0 0.0
2014-Sep-05 16:19N 29°07' E 122°24'  
Track history (hours):
 
Tides and Currents Weather Stations Pressure Air Temp Water Temp Dewpoint Dewpoint Depression Visibility Wind Speed Wind Dir Waves Ship Positions

Suez Canal Bridge

Last reported at 2014-Sep-15 16:16 UTC. Time now 2014-Sep-17 01:34 UTC.
Position N 01°13' E 103°31'.

Length 284.7 m; beam 40 m.

Type: Cargo ship. MMSI: 353704000.

Date/timePositionNaut miles runAvg speedWind from/ knotsBaromVisibWave heightAir tempDewpointWater temp
2014-Sep-15 16:16N 01°13' E 103°31'1014.4
2014-Sep-15 15:33N 01°13' E 103°41'7 6.4
2014-Sep-15 14:31N 01°16' E 103°47'0 0.3
2014-Sep-15 13:31N 01°17' E 103°47'0 0.0
2014-Sep-15 12:33N 01°17' E 103°47'0 0.0
2014-Sep-15 11:33N 01°17' E 103°47'0 0.0
2014-Sep-15 10:33N 01°17' E 103°47'0 0.1
2014-Sep-15 09:33N 01°17' E 103°47'0 0.0
2014-Sep-15 08:33N 01°17' E 103°47'0 0.0
2014-Sep-15 07:33N 01°17' E 103°47'0 0.0
2014-Sep-15 06:33N 01°17' E 103°47'0 0.1
2014-Sep-15 05:33N 01°17' E 103°47'0 0.0
2014-Sep-15 04:33N 01°17' E 103°47'0 0.0
2014-Sep-15 03:33N 01°17' E 103°47'0 0.1
2014-Sep-15 02:33N 01°17' E 103°47'0 0.0
2014-Sep-15 01:33N 01°17' E 103°47'0 0.0
2014-Sep-15 00:33N 01°17' E 103°47'0 0.1
2014-Sep-14 23:33N 01°17' E 103°47'0 0.1
2014-Sep-14 22:33N 01°17' E 103°47'0 0.0
2014-Sep-14 21:33N 01°17' E 103°47'0 0.0
2014-Sep-14 20:33N 01°17' E 103°47'0 0.1
2014-Sep-14 19:33N 01°17' E 103°47'0 0.1
2014-Sep-14 18:33N 01°17' E 103°47'5 5.4
2014-Sep-14 17:32N 01°12' E 103°50'4 4.1
2014-Sep-14 16:30N 01°14' E 103°53'0 0.0
2014-Sep-14 15:30N 01°14' E 103°53'0 0.0
2014-Sep-14 14:33N 01°14' E 103°53'0 0.0
2014-Sep-14 13:33N 01°14' E 103°53'1 0.9
2014-Sep-14 12:34N 01°14' E 103°54'5 5.4
2014-Sep-14 11:34N 01°16' E 103°59'7 7.1
2014-Sep-14 10:32N 01°16' E 104°06'  
2014-Sep-10 11:33N 23°13' E 117°35'1919.5
2014-Sep-10 10:33N 23°26' E 117°51'2120.4
2014-Sep-10 09:31N 23°39' E 118°08'1313.0
2014-Sep-10 08:33N 23°47' E 118°19'2019.1
2014-Sep-10 07:31N 24°01' E 118°34'2319.8
2014-Sep-10 06:21N 24°15' E 118°55'1618.5
2014-Sep-10 05:29N 24°27' E 119°06'1819.7
2014-Sep-10 04:33N 24°40' E 119°21'39018.5
2014-Sep-09 07:31N 30°18' E 122°59'2020.9
2014-Sep-09 06:33N 30°28' E 122°39'1717.0
2014-Sep-09 05:33N 30°32' E 122°20'1513.1
2014-Sep-09 04:23N 30°37' E 122°03'0 0.4
2014-Sep-09 03:09N 30°38' E 122°03'0 0.0
2014-Sep-09 02:25N 30°38' E 122°03'0 0.0
2014-Sep-09 01:33N 30°38' E 122°03'0 0.0
2014-Sep-09 00:32N 30°38' E 122°03'0 0.0
2014-Sep-08 23:33N 30°38' E 122°03'0 0.0
2014-Sep-08 22:32N 30°38' E 122°03'0 0.0
2014-Sep-08 21:33N 30°38' E 122°03'0 0.1
2014-Sep-08 20:33N 30°38' E 122°03'0 0.0
2014-Sep-08 19:29N 30°38' E 122°03'0 0.0
2014-Sep-08 18:30N 30°38' E 122°03'0 0.0
2014-Sep-08 17:33N 30°38' E 122°03'0 0.0
2014-Sep-08 16:31N 30°38' E 122°03'0 0.0
2014-Sep-08 15:33N 30°38' E 122°03'0 0.0
2014-Sep-08 14:32N 30°38' E 122°03'0 0.0
2014-Sep-08 13:32N 30°38' E 122°03'0 0.0
2014-Sep-08 12:33N 30°38' E 122°03'0 0.0
2014-Sep-08 11:24N 30°38' E 122°03'0 0.0
2014-Sep-08 10:33N 30°38' E 122°03'0 0.0
2014-Sep-08 09:32N 30°38' E 122°03'0 0.0
2014-Sep-08 08:30N 30°38' E 122°03'0 0.0
2014-Sep-08 07:33N 30°38' E 122°03'0 0.0
2014-Sep-08 06:33N 30°38' E 122°03'0 0.0
2014-Sep-08 05:32N 30°38' E 122°03'0 0.0
2014-Sep-08 04:27N 30°38' E 122°03'5 5.2
2014-Sep-08 03:33N 30°35' E 122°07'1110.8
2014-Sep-08 02:33N 30°33' E 122°20'5 5.4
2014-Sep-08 01:33N 30°32' E 122°26'9 9.4
2014-Sep-08 00:33N 30°30' E 122°37'1511.8
2014-Sep-07 23:18N 30°24' E 122°52'1215.1
2014-Sep-07 22:33N 30°17' E 123°02'1515.4
2014-Sep-07 21:33N 30°02' E 123°04'1716.9
2014-Sep-07 20:33N 29°52' E 122°48'1615.6
2014-Sep-07 19:33N 29°41' E 122°35'1413.9
2014-Sep-07 18:33N 29°44' E 122°20'1313.0
2014-Sep-07 17:33N 29°54' E 122°10'6 5.6
2014-Sep-07 16:28N 29°53' E 122°03'0 0.0
2014-Sep-07 15:22N 29°53' E 122°03'0 0.0
2014-Sep-07 13:28N 29°53' E 122°03'0 0.0
2014-Sep-07 12:28N 29°53' E 122°03'0 0.0
2014-Sep-07 10:04N 29°53' E 122°03'0 0.0
2014-Sep-07 08:28N 29°53' E 122°03'0 0.0
2014-Sep-07 06:04N 29°53' E 122°03'0 0.0
2014-Sep-07 05:04N 29°53' E 122°03'0 0.0
2014-Sep-07 01:22N 29°53' E 122°03'0 0.0
2014-Sep-07 00:22N 29°53' E 122°03'0 0.0
2014-Sep-06 23:28N 29°53' E 122°03'0 0.0
2014-Sep-06 22:04N 29°53' E 122°03'0 0.0
2014-Sep-06 21:28N 29°53' E 122°03'0 0.0
2014-Sep-06 20:22N 29°53' E 122°03'0 0.0
2014-Sep-06 19:22N 29°53' E 122°03'0 0.0
2014-Sep-06 18:25N 29°53' E 122°03'0 0.0
2014-Sep-06 17:22N 29°53' E 122°03'0 0.6
2014-Sep-06 16:33N 29°54' E 122°04'8 8.2
2014-Sep-06 15:33N 29°51' E 122°13'9 9.3
2014-Sep-06 14:33N 29°45' E 122°21'8 7.6
2014-Sep-06 13:33N 29°42' E 122°29'8 8.3
2014-Sep-06 12:32N 29°35' E 122°33'1110.5
2014-Sep-06 11:30N 29°24' E 122°32'1111.8
2014-Sep-06 10:33N 29°14' E 122°27'7 7.2
2014-Sep-06 09:33N 29°07' E 122°24'0 0.0
2014-Sep-06 08:23N 29°07' E 122°24'0 0.0
2014-Sep-06 07:31N 29°07' E 122°24'0 0.0
2014-Sep-05 20:29N 29°07' E 122°24'0 0.0
2014-Sep-05 19:20N 29°07' E 122°24'0 0.0
2014-Sep-05 18:18N 29°07' E 122°24'0 0.0
2014-Sep-05 17:27N 29°07' E 122°24'0 0.0
2014-Sep-05 16:19N 29°07' E 122°24'  

Dump ship's entire track history